IBE22IA LESO-LEMD
Flight info
| Callsign | IBE22IA |
|---|---|
| Flight time | 0h 46m |
| Altitude | 33000 |
| Route | PPN N857 BANEV |
| Aircraft | A320/M-SDE3FGHIRWY/LB1 |
Departure
| Time | 2026-04-12 11:03 |
|---|---|
| Airport | San Sebastián Airport (LESO) |
Arrival
| Time | 2026-04-12 11:49 |
|---|---|
| Airport | Adolfo Suárez Madrid–Barajas Airport (LEMD) |
| Time | Latitude | Longitude | Altitude | Speed | Heading |
|---|---|---|---|---|---|
| 2026-04-12 10:44 | 43.35638 | -1.79238 | 18 ft | 0 kts | 43° |
| 2026-04-12 10:46 | 43.35638 | -1.79237 | 18 ft | 0 kts | 43° |
| 2026-04-12 10:47 | 43.35638 | -1.79238 | 18 ft | 0 kts | 43° |
| 2026-04-12 11:00 | 43.35641 | -1.79233 | 18 ft | 4 kts | 44° |
| 2026-04-12 11:00 | 43.35630 | -1.79137 | 18 ft | 14 kts | 123° |
| 2026-04-12 11:01 | 43.35667 | -1.79042 | 18 ft | 15 kts | 40° |
| 2026-04-12 11:01 | 43.35766 | -1.78933 | 20 ft | 19 kts | 39° |
| 2026-04-12 11:01 | 43.35866 | -1.78823 | 23 ft | 19 kts | 39° |
| 2026-04-12 11:01 | 43.35974 | -1.78702 | 24 ft | 23 kts | 39° |
| 2026-04-12 11:02 | 43.36115 | -1.78550 | 23 ft | 27 kts | 39° |
| 2026-04-12 11:02 | 43.36207 | -1.78414 | 23 ft | 17 kts | 81° |
| 2026-04-12 11:02 | 43.36242 | -1.78415 | 23 ft | 9 kts | 227° |
| 2026-04-12 11:02 | 43.36224 | -1.78432 | 25 ft | 0 kts | 217° |
| 2026-04-12 11:03 | 43.36220 | -1.78435 | 25 ft | 10 kts | 217° |
| 2026-04-12 11:03 | 43.35922 | -1.78762 | 23 ft | 94 kts | 219° |
| 2026-04-12 11:03 | 43.35244 | -1.79507 | 46 ft | 150 kts | 219° |
| 2026-04-12 11:03 | 43.34444 | -1.80417 | 755 ft | 148 kts | 220° |
| 2026-04-12 11:04 | 43.33704 | -1.81399 | 1499 ft | 148 kts | 231° |
| 2026-04-12 11:04 | 43.33151 | -1.82543 | 2236 ft | 143 kts | 245° |
| 2026-04-12 11:04 | 43.32810 | -1.83821 | 2894 ft | 139 kts | 261° |
| 2026-04-12 11:04 | 43.32691 | -1.85119 | 3454 ft | 143 kts | 268° |
| 2026-04-12 11:05 | 43.32544 | -1.86646 | 3550 ft | 181 kts | 264° |
| 2026-04-12 11:05 | 43.32329 | -1.88451 | 3517 ft | 206 kts | 263° |
| 2026-04-12 11:05 | 43.31978 | -1.90546 | 3500 ft | 247 kts | 248° |
| 2026-04-12 11:05 | 43.30891 | -1.92516 | 3677 ft | 274 kts | 218° |
| 2026-04-12 11:06 | 43.29137 | -1.93537 | 4710 ft | 277 kts | 188° |
| 2026-04-12 11:06 | 43.27222 | -1.93285 | 5734 ft | 279 kts | 162° |
| 2026-04-12 11:06 | 43.25367 | -1.92477 | 6717 ft | 281 kts | 161° |
| 2026-04-12 11:06 | 43.23499 | -1.91659 | 7636 ft | 284 kts | 162° |
| 2026-04-12 11:07 | 43.21596 | -1.90831 | 8523 ft | 289 kts | 163° |
| 2026-04-12 11:07 | 43.19669 | -1.89999 | 9458 ft | 291 kts | 163° |
| 2026-04-12 11:07 | 43.17730 | -1.89161 | 10384 ft | 295 kts | 165° |
| 2026-04-12 11:07 | 43.15699 | -1.88287 | 10704 ft | 318 kts | 164° |
| 2026-04-12 11:08 | 43.13536 | -1.87358 | 11215 ft | 331 kts | 164° |
| 2026-04-12 11:08 | 43.11346 | -1.86423 | 11367 ft | 347 kts | 167° |
| 2026-04-12 11:08 | 43.08905 | -1.85763 | 11802 ft | 360 kts | 174° |
| 2026-04-12 11:08 | 43.06704 | -1.85265 | 13105 ft | 345 kts | 168° |
| 2026-04-12 11:09 | 43.04637 | -1.84406 | 14120 ft | 343 kts | 163° |
| 2026-04-12 11:09 | 43.02401 | -1.83222 | 14897 ft | 345 kts | 161° |
| 2026-04-12 11:09 | 43.00138 | -1.81966 | 15549 ft | 349 kts | 161° |
| 2026-04-12 11:09 | 42.97886 | -1.80774 | 16161 ft | 353 kts | 163° |
| 2026-04-12 11:10 | 42.95537 | -1.79795 | 16811 ft | 353 kts | 174° |
| 2026-04-12 11:10 | 42.93108 | -1.79768 | 17468 ft | 349 kts | 192° |
| 2026-04-12 11:10 | 42.90749 | -1.80545 | 18126 ft | 350 kts | 198° |
| 2026-04-12 11:10 | 42.88394 | -1.81415 | 18746 ft | 351 kts | 198° |
| 2026-04-12 11:11 | 42.86033 | -1.82302 | 19359 ft | 353 kts | 198° |
| 2026-04-12 11:11 | 42.83663 | -1.83196 | 19969 ft | 354 kts | 197° |
| 2026-04-12 11:11 | 42.81283 | -1.84094 | 20557 ft | 356 kts | 197° |
| 2026-04-12 11:11 | 42.78892 | -1.84994 | 21156 ft | 357 kts | 197° |
| 2026-04-12 11:12 | 42.76490 | -1.85893 | 21742 ft | 359 kts | 196° |
| 2026-04-12 11:12 | 42.74075 | -1.86795 | 22316 ft | 361 kts | 196° |
| 2026-04-12 11:12 | 42.71645 | -1.87698 | 22911 ft | 362 kts | 195° |
| 2026-04-12 11:12 | 42.69208 | -1.88602 | 23476 ft | 364 kts | 195° |
| 2026-04-12 11:13 | 42.66758 | -1.89509 | 23970 ft | 366 kts | 195° |
| 2026-04-12 11:13 | 42.64297 | -1.90417 | 24407 ft | 368 kts | 195° |
| 2026-04-12 11:13 | 42.61822 | -1.91329 | 24906 ft | 368 kts | 195° |
| 2026-04-12 11:13 | 42.59375 | -1.92233 | 25369 ft | 369 kts | 195° |
| 2026-04-12 11:14 | 42.56889 | -1.93155 | 25774 ft | 371 kts | 195° |
| 2026-04-12 11:14 | 42.54394 | -1.94084 | 26197 ft | 373 kts | 195° |
| 2026-04-12 11:14 | 42.51890 | -1.95014 | 26621 ft | 374 kts | 195° |
| 2026-04-12 11:14 | 42.49377 | -1.95945 | 27044 ft | 375 kts | 195° |
| 2026-04-12 11:15 | 42.46850 | -1.96878 | 27458 ft | 377 kts | 195° |
| 2026-04-12 11:15 | 42.44312 | -1.97812 | 27863 ft | 379 kts | 195° |
| 2026-04-12 11:15 | 42.41763 | -1.98751 | 28269 ft | 381 kts | 195° |
| 2026-04-12 11:15 | 42.39205 | -1.99691 | 28660 ft | 382 kts | 195° |
| 2026-04-12 11:16 | 42.36626 | -2.00638 | 28992 ft | 385 kts | 195° |
| 2026-04-12 11:16 | 42.34032 | -2.01588 | 29365 ft | 388 kts | 195° |
| 2026-04-12 11:16 | 42.31421 | -2.02547 | 29732 ft | 390 kts | 195° |
| 2026-04-12 11:16 | 42.28803 | -2.03508 | 30096 ft | 391 kts | 195° |
| 2026-04-12 11:17 | 42.26163 | -2.04476 | 30411 ft | 393 kts | 195° |
| 2026-04-12 11:17 | 42.23520 | -2.05441 | 30699 ft | 395 kts | 195° |
| 2026-04-12 11:17 | 42.20863 | -2.06411 | 30972 ft | 396 kts | 195° |
| 2026-04-12 11:17 | 42.18193 | -2.07395 | 31250 ft | 398 kts | 197° |
| 2026-04-12 11:18 | 42.15602 | -2.08754 | 31465 ft | 401 kts | 205° |
| 2026-04-12 11:18 | 42.13096 | -2.10415 | 31786 ft | 401 kts | 205° |
| 2026-04-12 11:18 | 42.10597 | -2.12071 | 32206 ft | 400 kts | 205° |
| 2026-04-12 11:18 | 42.08104 | -2.13724 | 32589 ft | 399 kts | 205° |
| 2026-04-12 11:19 | 42.05684 | -2.15344 | 33001 ft | 375 kts | 206° |
| 2026-04-12 11:19 | 42.03414 | -2.16867 | 33079 ft | 355 kts | 205° |
| 2026-04-12 11:19 | 42.01266 | -2.18279 | 33082 ft | 340 kts | 205° |
| 2026-04-12 11:19 | 41.99159 | -2.19650 | 33073 ft | 325 kts | 205° |
| 2026-04-12 11:20 | 41.95169 | -2.22277 | 33067 ft | 317 kts | 205° |
| 2026-04-12 11:20 | 41.91261 | -2.24877 | 33070 ft | 313 kts | 205° |
| 2026-04-12 11:21 | 41.87367 | -2.27437 | 33070 ft | 310 kts | 205° |
| 2026-04-12 11:21 | 41.83514 | -2.29958 | 33073 ft | 306 kts | 205° |
| 2026-04-12 11:22 | 41.79709 | -2.32434 | 33063 ft | 301 kts | 205° |
| 2026-04-12 11:22 | 41.77827 | -2.33659 | 33063 ft | 299 kts | 205° |
| 2026-04-12 11:22 | 41.75967 | -2.34871 | 33062 ft | 296 kts | 205° |
| 2026-04-12 11:23 | 41.74119 | -2.36074 | 33046 ft | 294 kts | 205° |
| 2026-04-12 11:23 | 41.72289 | -2.37266 | 33055 ft | 291 kts | 205° |
| 2026-04-12 11:23 | 41.70478 | -2.38445 | 33056 ft | 288 kts | 205° |
| 2026-04-12 11:23 | 41.68681 | -2.39613 | 33056 ft | 286 kts | 205° |
| 2026-04-12 11:24 | 41.66902 | -2.40769 | 33056 ft | 283 kts | 205° |
| 2026-04-12 11:24 | 41.65728 | -2.41532 | 33048 ft | 282 kts | 205° |
| 2026-04-12 11:24 | 41.63961 | -2.42633 | 33049 ft | 279 kts | 199° |
| 2026-04-12 11:24 | 41.62122 | -2.43428 | 33047 ft | 277 kts | 198° |
| 2026-04-12 11:25 | 41.60292 | -2.44185 | 33051 ft | 274 kts | 198° |
| 2026-04-12 11:25 | 41.58440 | -2.44946 | 32581 ft | 287 kts | 198° |
| 2026-04-12 11:25 | 41.56481 | -2.45744 | 32100 ft | 300 kts | 198° |
| 2026-04-12 11:25 | 41.54459 | -2.46555 | 31687 ft | 306 kts | 197° |
| 2026-04-12 11:26 | 41.52414 | -2.47356 | 31173 ft | 307 kts | 197° |
| 2026-04-12 11:26 | 41.50355 | -2.48157 | 30698 ft | 309 kts | 197° |
| 2026-04-12 11:26 | 41.48291 | -2.48966 | 30216 ft | 310 kts | 197° |
| 2026-04-12 11:26 | 41.46220 | -2.49786 | 29672 ft | 311 kts | 197° |
| 2026-04-12 11:27 | 41.44140 | -2.50617 | 29114 ft | 312 kts | 197° |
| 2026-04-12 11:27 | 41.42054 | -2.51451 | 28555 ft | 314 kts | 197° |
| 2026-04-12 11:27 | 41.39961 | -2.52290 | 28018 ft | 315 kts | 197° |
| 2026-04-12 11:27 | 41.37857 | -2.53131 | 27481 ft | 316 kts | 197° |
| 2026-04-12 11:28 | 41.35744 | -2.53973 | 26956 ft | 317 kts | 197° |
| 2026-04-12 11:28 | 41.33625 | -2.54816 | 26438 ft | 319 kts | 197° |
| 2026-04-12 11:28 | 41.31499 | -2.55664 | 25911 ft | 320 kts | 197° |
| 2026-04-12 11:28 | 41.29364 | -2.56519 | 25410 ft | 321 kts | 197° |
| 2026-04-12 11:29 | 41.27221 | -2.57371 | 24918 ft | 322 kts | 197° |
| 2026-04-12 11:29 | 41.25066 | -2.58224 | 24428 ft | 322 kts | 197° |
| 2026-04-12 11:29 | 41.22921 | -2.59077 | 23947 ft | 322 kts | 197° |
| 2026-04-12 11:29 | 41.20771 | -2.59938 | 23442 ft | 323 kts | 197° |
| 2026-04-12 11:30 | 41.18615 | -2.60800 | 22868 ft | 324 kts | 197° |
| 2026-04-12 11:30 | 41.16456 | -2.61661 | 22318 ft | 325 kts | 197° |
| 2026-04-12 11:30 | 41.14290 | -2.62522 | 21765 ft | 325 kts | 198° |
| 2026-04-12 11:30 | 41.12117 | -2.63382 | 21226 ft | 326 kts | 198° |
| 2026-04-12 11:31 | 41.09938 | -2.64242 | 20687 ft | 327 kts | 198° |
| 2026-04-12 11:31 | 41.07778 | -2.65095 | 20170 ft | 328 kts | 198° |
| 2026-04-12 11:31 | 41.05586 | -2.65960 | 19651 ft | 329 kts | 199° |
| 2026-04-12 11:31 | 41.03386 | -2.66826 | 19143 ft | 330 kts | 199° |
| 2026-04-12 11:32 | 41.01181 | -2.67697 | 18648 ft | 331 kts | 199° |
| 2026-04-12 11:32 | 40.98966 | -2.68573 | 18125 ft | 332 kts | 199° |
| 2026-04-12 11:32 | 40.96746 | -2.69450 | 17543 ft | 334 kts | 199° |
| 2026-04-12 11:32 | 40.94519 | -2.70329 | 16995 ft | 334 kts | 199° |
| 2026-04-12 11:33 | 40.92300 | -2.71208 | 16534 ft | 332 kts | 199° |
| 2026-04-12 11:33 | 40.90090 | -2.72079 | 16064 ft | 331 kts | 199° |
| 2026-04-12 11:33 | 40.87903 | -2.72934 | 15828 ft | 323 kts | 199° |
| 2026-04-12 11:33 | 40.85769 | -2.73768 | 15523 ft | 318 kts | 199° |
| 2026-04-12 11:34 | 40.83659 | -2.74599 | 15176 ft | 315 kts | 199° |
| 2026-04-12 11:34 | 40.81572 | -2.75426 | 14829 ft | 311 kts | 199° |
| 2026-04-12 11:34 | 40.79506 | -2.76244 | 14496 ft | 309 kts | 199° |
| 2026-04-12 11:34 | 40.77454 | -2.77054 | 14167 ft | 306 kts | 200° |
| 2026-04-12 11:35 | 40.75420 | -2.77855 | 13849 ft | 304 kts | 199° |
| 2026-04-12 11:35 | 40.73404 | -2.78648 | 13497 ft | 301 kts | 200° |
| 2026-04-12 11:35 | 40.71406 | -2.79431 | 13143 ft | 298 kts | 199° |
| 2026-04-12 11:35 | 40.69427 | -2.80203 | 12793 ft | 295 kts | 200° |
| 2026-04-12 11:36 | 40.67490 | -2.80958 | 12458 ft | 292 kts | 200° |
| 2026-04-12 11:36 | 40.65577 | -2.81800 | 12120 ft | 286 kts | 209° |
| 2026-04-12 11:36 | 40.63894 | -2.83088 | 12005 ft | 274 kts | 214° |
| 2026-04-12 11:36 | 40.62310 | -2.84369 | 12015 ft | 261 kts | 214° |
| 2026-04-12 11:37 | 40.60778 | -2.85618 | 12016 ft | 258 kts | 215° |
| 2026-04-12 11:37 | 40.59265 | -2.86858 | 12017 ft | 256 kts | 215° |
| 2026-04-12 11:37 | 40.57754 | -2.88097 | 12018 ft | 255 kts | 215° |
| 2026-04-12 11:37 | 40.56249 | -2.89322 | 12014 ft | 255 kts | 215° |
| 2026-04-12 11:38 | 40.54732 | -2.90548 | 11809 ft | 255 kts | 215° |
| 2026-04-12 11:38 | 40.53225 | -2.91741 | 11579 ft | 251 kts | 213° |
| 2026-04-12 11:38 | 40.51740 | -2.92912 | 11355 ft | 246 kts | 216° |
| 2026-04-12 11:38 | 40.50284 | -2.94065 | 11138 ft | 241 kts | 213° |
| 2026-04-12 11:39 | 40.48855 | -2.95202 | 10928 ft | 237 kts | 215° |
| 2026-04-12 11:39 | 40.47537 | -2.96433 | 10720 ft | 229 kts | 230° |
| 2026-04-12 11:39 | 40.46687 | -2.98175 | 10515 ft | 229 kts | 245° |
| 2026-04-12 11:39 | 40.45984 | -3.00057 | 10260 ft | 228 kts | 244° |
| 2026-04-12 11:40 | 40.45278 | -3.01930 | 10016 ft | 229 kts | 245° |
| 2026-04-12 11:40 | 40.44571 | -3.03794 | 9763 ft | 227 kts | 245° |
| 2026-04-12 11:40 | 40.43881 | -3.05637 | 9493 ft | 224 kts | 245° |
| 2026-04-12 11:40 | 40.43186 | -3.07453 | 9227 ft | 222 kts | 244° |
| 2026-04-12 11:41 | 40.42477 | -3.09246 | 8965 ft | 221 kts | 245° |
| 2026-04-12 11:41 | 40.41771 | -3.11033 | 8715 ft | 221 kts | 244° |
| 2026-04-12 11:41 | 40.41054 | -3.12830 | 8463 ft | 223 kts | 245° |
| 2026-04-12 11:41 | 40.40351 | -3.14639 | 8208 ft | 222 kts | 245° |
| 2026-04-12 11:42 | 40.39649 | -3.16453 | 7959 ft | 223 kts | 245° |
| 2026-04-12 11:42 | 40.38956 | -3.18277 | 7714 ft | 223 kts | 248° |
| 2026-04-12 11:42 | 40.38271 | -3.20099 | 7465 ft | 223 kts | 248° |
| 2026-04-12 11:43 | 40.36901 | -3.23754 | 6980 ft | 224 kts | 248° |
| 2026-04-12 11:43 | 40.36231 | -3.25596 | 6743 ft | 223 kts | 248° |
| 2026-04-12 11:43 | 40.35560 | -3.27431 | 6497 ft | 224 kts | 248° |
| 2026-04-12 11:43 | 40.34889 | -3.29243 | 6252 ft | 223 kts | 247° |
| 2026-04-12 11:44 | 40.34205 | -3.31066 | 5997 ft | 223 kts | 246° |
| 2026-04-12 11:44 | 40.33515 | -3.32890 | 5737 ft | 224 kts | 247° |
| 2026-04-12 11:44 | 40.32819 | -3.34720 | 5477 ft | 224 kts | 246° |
| 2026-04-12 11:44 | 40.32237 | -3.36567 | 5316 ft | 213 kts | 268° |
| 2026-04-12 11:45 | 40.32501 | -3.38354 | 5193 ft | 196 kts | 308° |
| 2026-04-12 11:45 | 40.33463 | -3.39552 | 5097 ft | 191 kts | 326° |
| 2026-04-12 11:45 | 40.34524 | -3.40604 | 5014 ft | 192 kts | 325° |
| 2026-04-12 11:45 | 40.35573 | -3.41651 | 5020 ft | 183 kts | 326° |
| 2026-04-12 11:46 | 40.36539 | -3.42633 | 5012 ft | 168 kts | 325° |
| 2026-04-12 11:46 | 40.37451 | -3.43573 | 4737 ft | 170 kts | 322° |
| 2026-04-12 11:46 | 40.38389 | -3.44532 | 4304 ft | 171 kts | 323° |
| 2026-04-12 11:46 | 40.39307 | -3.45464 | 3981 ft | 162 kts | 325° |
| 2026-04-12 11:47 | 40.40169 | -3.46338 | 3742 ft | 152 kts | 324° |
| 2026-04-12 11:47 | 40.40988 | -3.47165 | 3535 ft | 148 kts | 324° |
| 2026-04-12 11:47 | 40.41816 | -3.48000 | 3346 ft | 149 kts | 324° |
| 2026-04-12 11:47 | 40.42627 | -3.48823 | 3098 ft | 147 kts | 324° |
| 2026-04-12 11:48 | 40.43424 | -3.49634 | 2899 ft | 143 kts | 326° |
| 2026-04-12 11:48 | 40.44212 | -3.50432 | 2727 ft | 141 kts | 328° |
| 2026-04-12 11:48 | 40.44964 | -3.51194 | 2520 ft | 134 kts | 323° |
| 2026-04-12 11:48 | 40.45721 | -3.51964 | 2328 ft | 142 kts | 327° |
| 2026-04-12 11:49 | 40.46511 | -3.52762 | 2133 ft | 144 kts | 329° |
| 2026-04-12 11:49 | 40.47294 | -3.53555 | 2007 ft | 138 kts | 326° |
| 2026-04-12 11:49 | 40.47987 | -3.54253 | 1981 ft | 113 kts | 323° |
| 2026-04-12 11:49 | 40.48399 | -3.54672 | 1982 ft | 36 kts | 323° |
| 2026-04-12 11:50 | 40.48597 | -3.54872 | 1983 ft | 37 kts | 321° |
| 2026-04-12 11:50 | 40.48748 | -3.55048 | 1980 ft | 21 kts | 303° |
| 2026-04-12 11:50 | 40.48806 | -3.55228 | 1980 ft | 22 kts | 292° |
| 2026-04-12 11:50 | 40.48855 | -3.55385 | 1982 ft | 19 kts | 294° |
| 2026-04-12 11:51 | 40.48938 | -3.55513 | 1980 ft | 19 kts | 322° |
| 2026-04-12 11:51 | 40.49035 | -3.55611 | 1980 ft | 17 kts | 323° |
| 2026-04-12 11:51 | 40.49123 | -3.55699 | 1982 ft | 13 kts | 322° |
| 2026-04-12 11:51 | 40.49188 | -3.55763 | 1980 ft | 11 kts | 320° |
| 2026-04-12 11:52 | 40.49254 | -3.55834 | 1980 ft | 13 kts | 322° |
| 2026-04-12 11:52 | 40.49300 | -3.55929 | 1981 ft | 12 kts | 276° |
| 2026-04-12 11:52 | 40.49299 | -3.56018 | 1980 ft | 9 kts | 268° |
| 2026-04-12 11:52 | 40.49297 | -3.56099 | 1980 ft | 8 kts | 266° |
| 2026-04-12 11:53 | 40.49299 | -3.56186 | 1984 ft | 12 kts | 272° |
| 2026-04-12 11:53 | 40.49250 | -3.56251 | 1982 ft | 11 kts | 182° |
| 2026-04-12 11:53 | 40.49222 | -3.56287 | 1980 ft | 5 kts | 269° |
| 2026-04-12 11:53 | 40.49221 | -3.56349 | 1980 ft | 7 kts | 270° |
| 2026-04-12 11:54 | 40.49221 | -3.56354 | 1980 ft | 0 kts | 269° |